createdAt,value
2022-11-17T00:00:27.472Z,2.70
2022-11-17T00:02:55.918Z,2.40
2022-11-17T00:05:24.519Z,2.40
2022-11-17T00:07:52.870Z,2.22
2022-11-17T00:10:21.328Z,2.25
2022-11-17T00:13:07.237Z,2.15
2022-11-17T00:15:36.990Z,2.30
2022-11-17T00:18:22.816Z,2.38
2022-11-17T00:21:08.908Z,2.20
2022-11-17T00:23:48.431Z,2.10
2022-11-17T00:26:17.527Z,2.50
2022-11-17T00:28:45.880Z,2.40
2022-11-17T00:31:33.285Z,1.83
2022-11-17T00:34:08.030Z,1.70
2022-11-17T00:36:40.232Z,2.20
2022-11-17T00:39:09.132Z,1.88
2022-11-17T00:41:37.587Z,1.80
2022-11-17T00:44:06.532Z,1.70
2022-11-17T00:46:37.240Z,1.90
2022-11-17T00:49:06.195Z,2.13
2022-11-17T00:51:34.683Z,1.80
2022-11-17T00:54:03.524Z,1.55
2022-11-17T00:56:32.008Z,1.40
2022-11-17T00:59:00.380Z,1.85
2022-11-17T01:01:30.101Z,1.42
2022-11-17T01:04:04.166Z,1.75
2022-11-17T01:06:33.477Z,2.00
2022-11-17T01:09:01.943Z,1.73
2022-11-17T01:11:30.361Z,1.67
2022-11-17T01:13:59.255Z,1.50
2022-11-17T01:16:28.584Z,1.80
2022-11-17T01:18:57.375Z,1.50
2022-11-17T01:21:27.823Z,1.58
2022-11-17T01:23:56.919Z,1.48
2022-11-17T01:26:26.189Z,1.48
2022-11-17T01:28:55.021Z,1.92
2022-11-17T01:31:24.066Z,1.88
2022-11-17T01:33:52.909Z,2.00
2022-11-17T01:36:22.907Z,1.70
2022-11-17T01:38:52.661Z,1.85
2022-11-17T01:41:21.808Z,1.58
2022-11-17T01:43:51.180Z,1.80
2022-11-17T01:46:27.573Z,2.22
2022-11-17T01:48:57.594Z,1.90
2022-11-17T01:51:26.058Z,2.00
2022-11-17T01:53:55.846Z,1.65
2022-11-17T01:56:26.536Z,1.92
2022-11-17T01:58:57.239Z,1.75
2022-11-17T02:01:25.635Z,1.92
2022-11-17T02:03:54.111Z,1.88
2022-11-17T02:06:25.362Z,1.90
2022-11-17T02:08:54.487Z,1.75
2022-11-17T02:11:24.649Z,2.08
2022-11-17T02:13:55.246Z,1.83
2022-11-17T02:16:23.918Z,1.70
2022-11-17T02:18:52.320Z,1.55
2022-11-17T02:21:31.184Z,2.30
2022-11-17T02:24:14.591Z,1.90
2022-11-17T02:26:52.432Z,1.83
2022-11-17T02:29:24.270Z,1.73
2022-11-17T02:31:55.674Z,1.83
2022-11-17T02:34:28.395Z,1.63
2022-11-17T02:36:57.563Z,2.00
2022-11-17T02:39:27.214Z,1.75
2022-11-17T02:41:57.420Z,1.92
2022-11-17T02:44:28.233Z,2.00
2022-11-17T02:46:57.907Z,2.22
2022-11-17T02:49:27.570Z,1.90
2022-11-17T02:51:57.362Z,2.10
2022-11-17T02:54:26.778Z,2.50
2022-11-17T02:56:55.400Z,2.00
2022-11-17T02:59:25.995Z,2.00
2022-11-17T03:02:09.193Z,1.92
2022-11-17T03:04:43.679Z,2.00
2022-11-17T03:07:17.857Z,2.22
2022-11-17T03:09:48.801Z,1.88
2022-11-17T03:12:20.732Z,1.90
2022-11-17T03:14:53.278Z,1.90
2022-11-17T03:17:23.356Z,2.28
2022-11-17T03:19:58.681Z,1.92
2022-11-17T03:22:31.912Z,1.88
2022-11-17T03:25:02.084Z,1.80
2022-11-17T03:27:32.609Z,1.90
2022-11-17T03:30:01.886Z,2.20
2022-11-17T03:32:32.823Z,1.83
2022-11-17T03:35:04.997Z,2.15
2022-11-17T03:37:34.493Z,2.25
2022-11-17T03:40:04.710Z,2.28
2022-11-17T03:42:35.456Z,2.05
2022-11-17T03:45:06.489Z,2.45
2022-11-17T03:47:35.518Z,2.10
2022-11-17T03:50:07.723Z,2.30
2022-11-17T03:52:36.658Z,1.98
2022-11-17T03:55:05.513Z,2.00
2022-11-17T03:57:36.912Z,2.05
2022-11-17T04:00:07.125Z,1.95
2022-11-17T04:02:35.634Z,2.00
2022-11-17T04:05:08.618Z,2.10
2022-11-17T04:07:37.871Z,2.13
2022-11-17T04:10:06.779Z,1.67
2022-11-17T04:12:52.842Z,1.70
2022-11-17T04:15:47.310Z,1.50
2022-11-17T04:18:15.972Z,1.55
2022-11-17T04:20:45.693Z,1.52
2022-11-17T04:23:15.091Z,1.50
2022-11-17T04:26:02.423Z,1.40
2022-11-17T04:28:40.748Z,1.45
2022-11-17T04:31:10.772Z,1.75
2022-11-17T04:33:39.864Z,1.88
2022-11-17T04:36:10.300Z,1.70
2022-11-17T04:38:38.961Z,1.58
2022-11-17T04:41:26.132Z,1.58
2022-11-17T04:43:54.456Z,1.55
2022-11-17T04:46:23.667Z,1.58
2022-11-17T04:48:52.336Z,1.58
2022-11-17T04:51:22.525Z,1.50
2022-11-17T04:53:50.907Z,1.48
2022-11-17T04:56:20.387Z,1.60
2022-11-17T04:58:49.066Z,1.73
2022-11-17T05:01:18.761Z,1.63
2022-11-17T05:03:47.920Z,1.60
2022-11-17T05:06:17.337Z,1.75
2022-11-17T05:08:47.262Z,1.30
2022-11-17T05:11:42.487Z,1.50
2022-11-17T05:14:11.232Z,1.45
2022-11-17T05:16:57.277Z,1.52
2022-11-17T05:19:26.426Z,1.75
2022-11-17T05:21:55.095Z,1.60
2022-11-17T05:24:23.924Z,1.35
2022-11-17T05:26:52.505Z,1.63
2022-11-17T05:29:21.613Z,1.60
2022-11-17T05:31:50.540Z,1.60
2022-11-17T05:34:19.432Z,1.70
2022-11-17T05:36:47.818Z,1.75
2022-11-17T05:39:16.360Z,1.88
2022-11-17T05:41:46.091Z,1.80
2022-11-17T05:44:14.413Z,1.85
2022-11-17T05:46:42.839Z,2.28
2022-11-17T05:49:11.180Z,1.70
2022-11-17T05:51:39.560Z,2.00
2022-11-17T05:54:07.939Z,1.83
2022-11-17T05:56:40.486Z,1.75
2022-11-17T05:59:14.790Z,2.10
2022-11-17T06:01:45.602Z,1.90
2022-11-17T06:04:15.857Z,1.90
2022-11-17T06:06:44.309Z,2.10
2022-11-17T06:09:13.044Z,2.10
2022-11-17T06:11:41.404Z,2.03
2022-11-17T06:14:11.224Z,1.90
2022-11-17T06:16:42.640Z,2.15
2022-11-17T06:19:15.056Z,1.90
2022-11-17T06:22:10.654Z,2.10
2022-11-17T06:24:33.431Z,2.03
2022-11-17T06:27:02.379Z,1.80
2022-11-17T06:29:32.337Z,1.90
2022-11-17T06:32:00.939Z,1.92
2022-11-17T06:34:29.430Z,1.67
2022-11-17T06:36:57.781Z,1.88
2022-11-17T06:39:26.143Z,1.95
2022-11-17T06:41:54.452Z,1.70
2022-11-17T06:44:22.833Z,1.67
2022-11-17T06:46:52.535Z,1.75
2022-11-17T06:49:20.937Z,1.75
2022-11-17T06:51:49.250Z,1.90
2022-11-17T06:54:17.606Z,1.77
2022-11-17T06:56:46.108Z,1.85
2022-11-17T06:59:16.026Z,2.17
2022-11-17T07:01:44.461Z,1.80
2022-11-17T07:04:14.229Z,1.80
2022-11-17T07:06:42.570Z,1.75
2022-11-17T07:09:11.023Z,1.42
2022-11-17T07:11:39.401Z,1.63
2022-11-17T07:14:07.749Z,1.70
2022-11-17T07:16:36.094Z,1.90
2022-11-17T07:19:04.596Z,1.83
2022-11-17T07:21:34.659Z,1.60
2022-11-17T07:24:03.032Z,1.50
2022-11-17T07:26:31.410Z,1.80
2022-11-17T07:28:59.748Z,1.90
2022-11-17T07:31:28.136Z,1.60
2022-11-17T07:33:56.477Z,1.80
2022-11-17T07:36:24.892Z,2.08
2022-11-17T07:38:54.649Z,1.80
2022-11-17T07:41:23.031Z,2.10
2022-11-17T07:43:52.583Z,1.65
2022-11-17T07:46:20.924Z,2.13
2022-11-17T07:48:49.258Z,1.77
2022-11-17T07:51:17.715Z,1.67
2022-11-17T07:53:46.059Z,1.40
2022-11-17T07:56:15.990Z,1.58
2022-11-17T07:58:44.350Z,1.40
2022-11-17T08:01:15.096Z,1.35
2022-11-17T08:03:43.681Z,1.20
2022-11-17T08:06:12.240Z,1.50
2022-11-17T08:08:40.893Z,1.33
2022-11-17T08:11:10.127Z,1.30
2022-11-17T08:13:40.326Z,1.10
2022-11-17T08:16:09.370Z,1.75
2022-11-17T08:18:38.597Z,1.20
2022-11-17T08:21:08.400Z,1.08
2022-11-17T08:23:37.499Z,1.10
2022-11-17T08:26:06.719Z,1.17
2022-11-17T08:28:35.333Z,1.10
2022-11-17T08:31:06.121Z,1.35
2022-11-17T08:33:34.750Z,1.13
2022-11-17T08:36:03.672Z,1.10
2022-11-17T08:38:32.670Z,1.30
2022-11-17T08:41:03.060Z,1.30
2022-11-17T08:43:31.736Z,1.10
2022-11-17T08:46:00.090Z,1.13
2022-11-17T08:48:31.572Z,1.38
2022-11-17T08:50:59.941Z,1.20
2022-11-17T08:53:28.454Z,0.80
2022-11-17T08:55:56.817Z,1.20
2022-11-17T08:58:25.225Z,1.30
2022-11-17T09:00:53.653Z,1.38
2022-11-17T09:03:22.051Z,1.20
2022-11-17T09:05:51.824Z,1.20
2022-11-17T09:08:44.592Z,1.75
2022-11-17T09:11:09.200Z,1.33
2022-11-17T09:13:38.241Z,2.00
2022-11-17T09:16:08.150Z,1.58
2022-11-17T09:18:38.411Z,1.40
2022-11-17T09:21:09.592Z,1.30
2022-11-17T09:23:38.668Z,1.38
2022-11-17T09:26:08.547Z,1.10
2022-11-17T09:28:37.501Z,1.10
2022-11-17T09:31:09.962Z,1.35
2022-11-17T09:33:38.775Z,1.48
2022-11-17T09:36:09.005Z,1.17
2022-11-17T09:38:38.476Z,1.60
2022-11-17T09:41:20.570Z,1.40
2022-11-17T09:43:52.010Z,1.70
2022-11-17T09:46:23.086Z,1.55
2022-11-17T09:48:55.654Z,1.40
2022-11-17T09:51:27.141Z,1.30
2022-11-17T09:53:58.374Z,1.40
2022-11-17T09:56:28.819Z,1.23
2022-11-17T09:58:58.809Z,1.58
2022-11-17T10:01:30.426Z,1.40
2022-11-17T10:04:01.347Z,1.77
2022-11-17T10:06:32.414Z,1.20
2022-11-17T10:09:03.765Z,1.10
2022-11-17T10:11:33.113Z,1.40
2022-11-17T10:14:04.498Z,1.35
2022-11-17T10:16:33.285Z,1.40
2022-11-17T10:19:03.722Z,1.60
2022-11-17T10:21:33.525Z,1.27
2022-11-17T10:24:02.314Z,1.33
2022-11-17T10:26:30.698Z,1.05
2022-11-17T10:29:09.473Z,1.00
2022-11-17T10:31:47.267Z,1.23
2022-11-17T10:34:38.874Z,0.90
2022-11-17T10:37:24.606Z,1.00
2022-11-17T10:40:04.191Z,1.02
2022-11-17T10:42:32.778Z,0.98
2022-11-17T10:45:03.087Z,1.00
2022-11-17T10:47:33.654Z,0.90
2022-11-17T10:50:14.379Z,0.88
2022-11-17T10:52:44.107Z,0.90
2022-11-17T10:55:19.188Z,0.95
2022-11-17T10:57:49.306Z,0.90
2022-11-17T11:00:33.846Z,1.08
2022-11-17T11:03:17.015Z,0.95
2022-11-17T11:05:56.996Z,0.73
2022-11-17T11:08:28.986Z,1.10
2022-11-17T11:10:58.735Z,1.00
2022-11-17T11:13:30.034Z,1.45
2022-11-17T11:15:58.501Z,0.70
2022-11-17T11:18:29.604Z,1.17
2022-11-17T11:21:00.847Z,1.10
2022-11-17T11:23:37.234Z,0.98
2022-11-17T11:26:11.003Z,0.93
2022-11-17T11:28:48.113Z,1.00
2022-11-17T11:31:23.375Z,0.88
2022-11-17T11:33:54.889Z,1.00
2022-11-17T11:36:31.210Z,0.88
2022-11-17T11:39:03.744Z,0.90
2022-11-17T11:41:44.567Z,1.05
2022-11-17T11:44:22.546Z,0.95
2022-11-17T11:46:54.538Z,1.08
2022-11-17T11:49:29.394Z,1.00
2022-11-17T11:51:57.820Z,1.00
2022-11-17T11:54:32.880Z,0.93
2022-11-17T11:57:02.303Z,1.10
2022-11-17T11:59:37.189Z,0.90
2022-11-17T12:02:16.359Z,0.93
2022-11-17T12:04:47.786Z,1.00
2022-11-17T12:07:20.241Z,1.02
2022-11-17T12:09:53.642Z,1.00
2022-11-17T12:12:24.403Z,1.08
2022-11-17T12:15:14.005Z,1.00
2022-11-17T12:17:56.574Z,1.10
2022-11-17T12:20:58.267Z,1.10
2022-11-17T12:23:53.707Z,1.25
2022-11-17T12:26:25.459Z,1.10
2022-11-17T12:29:08.764Z,1.40
2022-11-17T12:31:43.934Z,1.20
2022-11-17T12:34:22.872Z,1.10
2022-11-17T12:37:06.104Z,1.10
2022-11-17T12:40:07.921Z,1.00
2022-11-17T12:42:38.481Z,0.88
2022-11-17T12:45:10.827Z,1.02
2022-11-17T12:47:40.185Z,1.27
2022-11-17T12:50:29.809Z,1.00
2022-11-17T12:53:12.558Z,1.08
2022-11-17T12:55:53.117Z,1.30
2022-11-17T12:58:26.541Z,1.00
2022-11-17T13:01:01.223Z,0.80
2022-11-17T13:03:35.874Z,1.20
2022-11-17T13:09:00.815Z,1.00
2022-11-17T13:11:29.895Z,0.90
2022-11-17T13:14:13.612Z,1.35
2022-11-17T13:16:46.383Z,1.35
2022-11-17T13:19:32.322Z,1.10
2022-11-17T13:22:01.703Z,1.23
2022-11-17T13:24:34.760Z,1.30
2022-11-17T13:27:03.835Z,1.35
2022-11-17T13:29:33.522Z,1.08
2022-11-17T13:32:18.656Z,1.45
2022-11-17T13:34:48.335Z,1.17
2022-11-17T13:37:17.855Z,1.35
2022-11-17T13:40:01.166Z,1.00
2022-11-17T13:42:31.693Z,1.10
2022-11-17T13:45:03.672Z,1.10
2022-11-17T13:47:46.682Z,0.93
2022-11-17T13:50:25.313Z,1.02
2022-11-17T13:52:55.594Z,1.27
2022-11-17T13:55:25.132Z,1.48
2022-11-17T13:57:55.412Z,1.08
2022-11-17T14:00:26.087Z,1.10
2022-11-17T14:02:55.155Z,1.20
2022-11-17T14:05:25.344Z,1.20
2022-11-17T14:07:54.607Z,1.20
2022-11-17T14:10:31.596Z,0.85
2022-11-17T14:13:18.835Z,1.40
2022-11-17T14:15:53.820Z,1.65
2022-11-17T14:18:25.935Z,1.42
2022-11-17T14:21:06.125Z,1.65
2022-11-17T14:23:35.017Z,1.50
2022-11-17T14:26:03.788Z,1.30
2022-11-17T14:28:32.202Z,1.42
2022-11-17T14:31:01.954Z,1.20
2022-11-17T14:33:30.361Z,1.48
2022-11-17T14:36:00.543Z,1.35
2022-11-17T14:38:29.040Z,1.60
2022-11-17T14:40:57.518Z,1.40
2022-11-17T14:43:26.093Z,1.10
2022-11-17T14:45:54.517Z,1.38
2022-11-17T14:48:24.287Z,1.60
2022-11-17T14:50:57.912Z,1.38
2022-11-17T14:53:26.613Z,1.52
2022-11-17T14:55:55.348Z,1.40
2022-11-17T14:58:23.860Z,1.65
2022-11-17T15:00:52.361Z,1.65
2022-11-17T15:03:20.803Z,1.50
2022-11-17T15:05:50.615Z,1.50
2022-11-17T15:08:19.098Z,1.38
2022-11-17T15:10:47.688Z,1.40
2022-11-17T15:13:16.098Z,1.48
2022-11-17T15:15:44.764Z,1.75
2022-11-17T15:18:13.325Z,1.50
2022-11-17T15:20:41.700Z,1.40
2022-11-17T15:23:12.022Z,1.30
2022-11-17T15:25:40.452Z,1.30
2022-11-17T15:28:08.848Z,1.88
2022-11-17T15:30:37.197Z,1.70
2022-11-17T15:33:05.978Z,1.65
2022-11-17T15:35:34.331Z,1.42
2022-11-17T15:38:02.782Z,1.50
2022-11-17T15:40:32.504Z,1.55
2022-11-17T15:43:05.525Z,1.60
2022-11-17T15:45:34.057Z,1.80
2022-11-17T15:48:02.482Z,1.40
2022-11-17T15:50:30.818Z,1.60
2022-11-17T15:53:04.455Z,1.70
2022-11-17T15:55:35.179Z,1.60
2022-11-17T15:58:04.168Z,1.40
2022-11-17T16:00:34.532Z,1.73
2022-11-17T16:03:02.967Z,1.67
2022-11-17T16:05:31.329Z,1.67
2022-11-17T16:07:59.716Z,1.40
2022-11-17T16:10:28.262Z,1.92
2022-11-17T16:12:58.035Z,1.45
2022-11-17T16:15:26.680Z,1.70
2022-11-17T16:17:55.067Z,1.73
2022-11-17T16:20:23.494Z,1.98
2022-11-17T16:22:51.895Z,1.58
2022-11-17T16:25:20.332Z,1.90
2022-11-17T16:27:48.693Z,1.60
2022-11-17T16:30:18.851Z,1.70
2022-11-17T16:32:47.221Z,2.00
2022-11-17T16:35:15.634Z,1.90
2022-11-17T16:37:44.192Z,2.28
2022-11-17T16:40:12.839Z,1.60
2022-11-17T16:42:41.194Z,1.80
2022-11-17T16:45:09.901Z,1.88
2022-11-17T16:47:39.643Z,1.83
2022-11-17T16:50:08.434Z,2.00
2022-11-17T16:52:36.799Z,1.85
2022-11-17T16:55:05.619Z,1.85
2022-11-17T16:57:34.025Z,1.48
2022-11-17T17:00:02.444Z,1.70
2022-11-17T17:02:32.596Z,1.80
2022-11-17T17:05:02.319Z,1.70
2022-11-17T17:07:30.739Z,2.00
2022-11-17T17:09:59.332Z,1.60
2022-11-17T17:12:29.000Z,1.58
2022-11-17T17:14:57.331Z,1.80
2022-11-17T17:17:26.039Z,1.90
2022-11-17T17:19:54.635Z,2.15
2022-11-17T17:22:24.458Z,1.77
2022-11-17T17:24:52.789Z,2.10
2022-11-17T17:27:21.196Z,2.20
2022-11-17T17:29:49.524Z,1.85
2022-11-17T17:32:17.891Z,2.17
2022-11-17T17:34:46.218Z,1.90
2022-11-17T17:37:14.572Z,1.90
2022-11-17T17:39:44.281Z,1.88
2022-11-17T17:42:12.648Z,2.10
2022-11-17T17:44:40.981Z,1.88
2022-11-17T17:47:09.439Z,2.28
2022-11-17T17:49:37.764Z,2.25
2022-11-17T17:52:12.461Z,2.58
2022-11-17T17:54:42.205Z,1.80
2022-11-17T17:57:12.004Z,2.10
2022-11-17T17:59:40.407Z,2.33
2022-11-17T18:02:08.820Z,2.05
2022-11-17T18:04:37.179Z,2.75
2022-11-17T18:07:05.670Z,2.20
2022-11-17T18:09:34.146Z,2.10
2022-11-17T18:12:02.564Z,2.20
2022-11-17T18:14:32.319Z,2.35
2022-11-17T18:17:00.796Z,2.40
2022-11-17T18:19:32.929Z,2.20
2022-11-17T18:22:01.708Z,2.10
2022-11-17T18:24:30.102Z,2.13
2022-11-17T18:26:58.694Z,2.28
2022-11-17T18:29:27.261Z,2.58
2022-11-17T18:31:57.072Z,2.40
2022-11-17T18:34:26.388Z,2.38
2022-11-17T18:36:56.373Z,2.55
2022-11-17T18:39:25.013Z,2.78
2022-11-17T18:41:53.455Z,2.78
2022-11-17T18:44:21.853Z,2.70
2022-11-17T18:46:50.274Z,2.13
2022-11-17T18:49:20.366Z,2.28
2022-11-17T18:51:48.973Z,2.28
2022-11-17T18:54:17.690Z,2.17
2022-11-17T18:56:46.135Z,2.50
2022-11-17T18:59:15.035Z,1.95
2022-11-17T19:01:44.469Z,2.05
2022-11-17T19:04:14.439Z,2.30
2022-11-17T19:06:44.319Z,1.90
2022-11-17T19:09:13.552Z,2.25
2022-11-17T19:11:42.325Z,2.20
2022-11-17T19:14:10.751Z,2.10
2022-11-17T19:16:44.402Z,2.42
2022-11-17T19:19:14.440Z,2.40
2022-11-17T19:21:46.676Z,2.28
2022-11-17T19:24:15.720Z,2.50
2022-11-17T19:26:44.149Z,2.80
2022-11-17T19:29:17.210Z,2.80
2022-11-17T19:31:46.185Z,2.22
2022-11-17T19:34:14.740Z,2.50
2022-11-17T19:36:44.504Z,2.53
2022-11-17T19:39:15.247Z,2.33
2022-11-17T19:41:45.203Z,2.45
2022-11-17T19:44:13.767Z,2.47
2022-11-17T19:46:43.322Z,2.58
2022-11-17T19:49:13.152Z,2.17
2022-11-17T19:51:42.181Z,2.08
2022-11-17T19:54:11.175Z,2.10
2022-11-17T19:56:40.968Z,2.20
2022-11-17T19:59:15.236Z,2.50
2022-11-17T20:01:44.920Z,3.00
2022-11-17T20:04:13.428Z,2.70
2022-11-17T20:06:41.870Z,3.00
2022-11-17T20:09:10.882Z,2.45
2022-11-17T20:11:40.903Z,3.08
2022-11-17T20:14:09.539Z,2.40
2022-11-17T20:16:38.866Z,3.22
2022-11-17T20:19:07.649Z,3.30
2022-11-17T20:21:36.373Z,2.70
2022-11-17T20:24:05.124Z,2.35
2022-11-17T20:26:35.162Z,3.03
2022-11-17T20:29:05.005Z,3.00
2022-11-17T20:31:34.581Z,3.25
2022-11-17T20:34:03.987Z,2.97
2022-11-17T20:36:33.056Z,2.72
2022-11-17T20:39:02.530Z,2.97
2022-11-17T20:41:31.571Z,3.15
2022-11-17T20:44:00.704Z,4.00
2022-11-17T20:46:30.782Z,5.10
2022-11-17T20:48:59.199Z,2.72
2022-11-17T20:51:28.059Z,4.55
2022-11-17T20:53:56.628Z,4.10
2022-11-17T20:56:25.800Z,4.30
2022-11-17T20:58:54.748Z,2.63
2022-11-17T21:01:24.204Z,2.88
2022-11-17T21:03:54.529Z,3.25
2022-11-17T21:06:23.519Z,2.80
2022-11-17T21:08:52.894Z,3.00
2022-11-17T21:11:35.995Z,2.70
2022-11-17T21:14:04.596Z,2.78
2022-11-17T21:16:33.580Z,2.75
2022-11-17T21:19:03.376Z,2.78
2022-11-17T21:21:31.879Z,2.60
2022-11-17T21:24:00.720Z,2.47
2022-11-17T21:26:29.954Z,2.72
2022-11-17T21:29:03.228Z,3.05
2022-11-17T21:31:34.841Z,2.70
2022-11-17T21:34:06.028Z,2.80
2022-11-17T21:36:34.955Z,3.30
2022-11-17T21:39:03.275Z,3.30
2022-11-17T21:41:34.648Z,3.20
2022-11-17T21:44:03.898Z,3.38
2022-11-17T21:46:32.936Z,3.20
2022-11-17T21:49:02.255Z,3.33
2022-11-17T21:51:33.507Z,3.25
2022-11-17T21:54:02.582Z,3.38
2022-11-17T21:56:32.075Z,3.10
2022-11-17T21:59:01.355Z,3.20
2022-11-17T22:01:29.967Z,3.67
2022-11-17T22:03:58.589Z,2.95
2022-11-17T22:06:27.458Z,2.78
2022-11-17T22:08:57.574Z,3.08
2022-11-17T22:11:36.865Z,3.60
2022-11-17T22:14:06.551Z,3.50
2022-11-17T22:16:35.913Z,2.72
2022-11-17T22:19:04.964Z,3.10
2022-11-17T22:21:33.474Z,2.88
2022-11-17T22:24:03.571Z,3.00
2022-11-17T22:26:32.756Z,2.88
2022-11-17T22:29:01.397Z,3.17
2022-11-17T22:31:29.844Z,2.58
2022-11-17T22:33:58.276Z,2.90
2022-11-17T22:36:26.790Z,3.15
2022-11-17T22:38:55.168Z,2.70
2022-11-17T22:41:25.200Z,3.22
2022-11-17T22:43:54.111Z,2.92
2022-11-17T22:46:23.178Z,3.00
2022-11-17T22:48:51.856Z,2.97
2022-11-17T22:51:34.575Z,2.65
2022-11-17T22:54:03.042Z,2.47
2022-11-17T22:56:32.955Z,2.65
2022-11-17T22:59:01.362Z,2.92
2022-11-17T23:01:29.806Z,2.80
2022-11-17T23:03:58.511Z,3.35
2022-11-17T23:06:27.591Z,3.28
2022-11-17T23:08:57.402Z,2.70
2022-11-17T23:11:41.606Z,2.92
2022-11-17T23:14:12.646Z,2.47
2022-11-17T23:16:41.452Z,3.00
2022-11-17T23:19:12.253Z,2.78
2022-11-17T23:21:40.665Z,2.70
2022-11-17T23:24:12.631Z,2.72
2022-11-17T23:26:41.222Z,3.03
2022-11-17T23:29:10.284Z,2.83
2022-11-17T23:31:40.100Z,2.70
2022-11-17T23:34:09.901Z,2.55
2022-11-17T23:36:38.324Z,3.03
2022-11-17T23:39:06.875Z,2.58
2022-11-17T23:41:35.287Z,2.78
2022-11-17T23:44:03.756Z,2.92
2022-11-17T23:46:32.270Z,2.65
2022-11-17T23:49:02.075Z,2.63
2022-11-17T23:51:30.550Z,2.95
2022-11-17T23:53:59.920Z,2.50
2022-11-17T23:56:28.490Z,2.50
2022-11-17T23:58:56.873Z,2.63
